sensor_id;sensor_type;location;lat;lon;timestamp;temperature;humidity
9179;DHT22;4624;48.126;11.546;2022-12-10T00:01:10;2.10;99.90
9179;DHT22;4624;48.126;11.546;2022-12-10T00:03:37;2.10;99.90
9179;DHT22;4624;48.126;11.546;2022-12-10T00:06:08;2.10;99.90
9179;DHT22;4624;48.126;11.546;2022-12-10T00:08:36;2.10;99.90
9179;DHT22;4624;48.126;11.546;2022-12-10T00:11:04;2.20;99.90
9179;DHT22;4624;48.126;11.546;2022-12-10T00:13:33;2.20;99.90
9179;DHT22;4624;48.126;11.546;2022-12-10T00:16:00;2.20;99.90
9179;DHT22;4624;48.126;11.546;2022-12-10T00:18:27;2.20;99.90
9179;DHT22;4624;48.126;11.546;2022-12-10T00:20:53;2.20;99.90
9179;DHT22;4624;48.126;11.546;2022-12-10T00:23:22;2.20;99.90
9179;DHT22;4624;48.126;11.546;2022-12-10T00:25:49;2.20;99.90
9179;DHT22;4624;48.126;11.546;2022-12-10T00:28:16;2.20;99.90
9179;DHT22;4624;48.126;11.546;2022-12-10T00:30:42;2.20;99.90
9179;DHT22;4624;48.126;11.546;2022-12-10T00:33:09;2.20;99.90
9179;DHT22;4624;48.126;11.546;2022-12-10T00:35:36;2.20;99.90
9179;DHT22;4624;48.126;11.546;2022-12-10T00:38:03;2.20;99.90
9179;DHT22;4624;48.126;11.546;2022-12-10T00:40:32;2.20;99.90
9179;DHT22;4624;48.126;11.546;2022-12-10T00:42:59;2.20;99.90
9179;DHT22;4624;48.126;11.546;2022-12-10T00:45:26;2.20;99.90
9179;DHT22;4624;48.126;11.546;2022-12-10T00:47:53;2.20;99.90
9179;DHT22;4624;48.126;11.546;2022-12-10T00:50:19;2.20;99.90
9179;DHT22;4624;48.126;11.546;2022-12-10T00:52:46;2.10;99.90
9179;DHT22;4624;48.126;11.546;2022-12-10T00:55:13;2.10;99.90
9179;DHT22;4624;48.126;11.546;2022-12-10T00:57:41;2.20;99.90
9179;DHT22;4624;48.126;11.546;2022-12-10T01:00:09;2.20;99.90
9179;DHT22;4624;48.126;11.546;2022-12-10T01:02:36;2.20;99.90
9179;DHT22;4624;48.126;11.546;2022-12-10T01:05:03;2.20;99.90
9179;DHT22;4624;48.126;11.546;2022-12-10T01:07:29;2.10;99.90
9179;DHT22;4624;48.126;11.546;2022-12-10T01:09:56;2.20;99.90
9179;DHT22;4624;48.126;11.546;2022-12-10T01:12:23;2.20;99.90
9179;DHT22;4624;48.126;11.546;2022-12-10T01:14:51;2.20;99.90
9179;DHT22;4624;48.126;11.546;2022-12-10T01:17:18;2.10;99.90
9179;DHT22;4624;48.126;11.546;2022-12-10T01:19:46;2.10;99.90
9179;DHT22;4624;48.126;11.546;2022-12-10T01:22:13;2.20;99.90
9179;DHT22;4624;48.126;11.546;2022-12-10T01:24:40;2.20;99.90
9179;DHT22;4624;48.126;11.546;2022-12-10T01:27:06;2.20;99.90
9179;DHT22;4624;48.126;11.546;2022-12-10T01:29:33;2.20;99.90
9179;DHT22;4624;48.126;11.546;2022-12-10T01:32:01;2.20;99.90
9179;DHT22;4624;48.126;11.546;2022-12-10T01:34:28;2.20;99.90
9179;DHT22;4624;48.126;11.546;2022-12-10T01:36:55;2.20;99.90
9179;DHT22;4624;48.126;11.546;2022-12-10T01:39:23;2.20;99.90
9179;DHT22;4624;48.126;11.546;2022-12-10T01:41:51;2.20;99.90
9179;DHT22;4624;48.126;11.546;2022-12-10T01:45:06;2.10;99.90
9179;DHT22;4624;48.126;11.546;2022-12-10T01:47:34;2.20;99.90
9179;DHT22;4624;48.126;11.546;2022-12-10T01:50:02;2.10;99.90
9179;DHT22;4624;48.126;11.546;2022-12-10T01:52:29;2.10;99.90
9179;DHT22;4624;48.126;11.546;2022-12-10T01:54:56;2.10;99.90
9179;DHT22;4624;48.126;11.546;2022-12-10T01:57:25;2.10;99.90
9179;DHT22;4624;48.126;11.546;2022-12-10T01:59:55;2.10;99.90
9179;DHT22;4624;48.126;11.546;2022-12-10T02:02:32;2.10;99.90
9179;DHT22;4624;48.126;11.546;2022-12-10T02:05:12;2.10;99.90
9179;DHT22;4624;48.126;11.546;2022-12-10T02:07:51;2.10;99.90
9179;DHT22;4624;48.126;11.546;2022-12-10T02:10:26;2.10;99.90
9179;DHT22;4624;48.126;11.546;2022-12-10T02:13:04;2.10;99.90
9179;DHT22;4624;48.126;11.546;2022-12-10T02:15:34;2.10;99.90
9179;DHT22;4624;48.126;11.546;2022-12-10T02:18:05;2.10;99.90
9179;DHT22;4624;48.126;11.546;2022-12-10T02:20:38;2.10;99.90
9179;DHT22;4624;48.126;11.546;2022-12-10T02:23:07;2.10;99.90
9179;DHT22;4624;48.126;11.546;2022-12-10T02:25:41;2.10;99.90
9179;DHT22;4624;48.126;11.546;2022-12-10T02:28:13;2.10;99.90
9179;DHT22;4624;48.126;11.546;2022-12-10T02:30:45;2.10;99.90
9179;DHT22;4624;48.126;11.546;2022-12-10T02:33:16;2.10;99.90
9179;DHT22;4624;48.126;11.546;2022-12-10T02:35:45;2.10;99.90
9179;DHT22;4624;48.126;11.546;2022-12-10T02:38:16;2.10;99.90
9179;DHT22;4624;48.126;11.546;2022-12-10T02:40:46;2.10;99.90
9179;DHT22;4624;48.126;11.546;2022-12-10T02:43:15;2.10;99.90
9179;DHT22;4624;48.126;11.546;2022-12-10T02:45:42;2.10;99.90
9179;DHT22;4624;48.126;11.546;2022-12-10T02:48:12;2.10;99.90
9179;DHT22;4624;48.126;11.546;2022-12-10T02:50:39;2.10;99.90
9179;DHT22;4624;48.126;11.546;2022-12-10T02:53:06;2.10;99.90
9179;DHT22;4624;48.126;11.546;2022-12-10T02:55:54;2.10;99.90
9179;DHT22;4624;48.126;11.546;2022-12-10T02:58:28;2.10;99.90
9179;DHT22;4624;48.126;11.546;2022-12-10T03:00:58;2.10;99.90
9179;DHT22;4624;48.126;11.546;2022-12-10T03:03:35;2.10;99.90
9179;DHT22;4624;48.126;11.546;2022-12-10T03:06:08;2.00;99.90
9179;DHT22;4624;48.126;11.546;2022-12-10T03:08:41;2.00;99.90
9179;DHT22;4624;48.126;11.546;2022-12-10T03:11:11;2.00;99.90
9179;DHT22;4624;48.126;11.546;2022-12-10T03:13:41;2.00;99.90
9179;DHT22;4624;48.126;11.546;2022-12-10T03:16:10;2.00;99.90
9179;DHT22;4624;48.126;11.546;2022-12-10T03:18:39;2.00;99.90
9179;DHT22;4624;48.126;11.546;2022-12-10T03:21:07;2.00;99.90
9179;DHT22;4624;48.126;11.546;2022-12-10T03:23:37;2.00;99.90
9179;DHT22;4624;48.126;11.546;2022-12-10T03:26:07;1.90;99.90
9179;DHT22;4624;48.126;11.546;2022-12-10T03:28:38;1.90;99.90
9179;DHT22;4624;48.126;11.546;2022-12-10T03:31:07;1.90;99.90
9179;DHT22;4624;48.126;11.546;2022-12-10T03:33:36;1.90;99.90
9179;DHT22;4624;48.126;11.546;2022-12-10T03:36:04;1.90;99.90
9179;DHT22;4624;48.126;11.546;2022-12-10T03:38:32;1.80;99.90
9179;DHT22;4624;48.126;11.546;2022-12-10T03:40:59;1.90;99.90
9179;DHT22;4624;48.126;11.546;2022-12-10T03:43:25;1.90;99.90
9179;DHT22;4624;48.126;11.546;2022-12-10T03:45:52;1.90;99.90
9179;DHT22;4624;48.126;11.546;2022-12-10T03:48:19;1.90;99.90
9179;DHT22;4624;48.126;11.546;2022-12-10T03:50:46;1.90;99.90
9179;DHT22;4624;48.126;11.546;2022-12-10T03:53:14;1.90;99.90
9179;DHT22;4624;48.126;11.546;2022-12-10T03:55:41;1.90;99.90
9179;DHT22;4624;48.126;11.546;2022-12-10T03:58:07;1.90;99.90
9179;DHT22;4624;48.126;11.546;2022-12-10T04:00:34;1.90;99.90
9179;DHT22;4624;48.126;11.546;2022-12-10T04:03:01;1.90;99.90
9179;DHT22;4624;48.126;11.546;2022-12-10T04:05:27;1.90;99.90
9179;DHT22;4624;48.126;11.546;2022-12-10T04:07:54;1.90;99.90
9179;DHT22;4624;48.126;11.546;2022-12-10T04:10:22;1.90;99.90
9179;DHT22;4624;48.126;11.546;2022-12-10T04:12:49;1.90;99.90
9179;DHT22;4624;48.126;11.546;2022-12-10T04:15:38;1.80;99.90
9179;DHT22;4624;48.126;11.546;2022-12-10T04:18:22;1.80;99.90
9179;DHT22;4624;48.126;11.546;2022-12-10T04:20:49;1.80;99.90
9179;DHT22;4624;48.126;11.546;2022-12-10T04:23:34;1.80;99.90
9179;DHT22;4624;48.126;11.546;2022-12-10T04:26:19;1.80;99.90
9179;DHT22;4624;48.126;11.546;2022-12-10T04:29:04;1.80;99.90
9179;DHT22;4624;48.126;11.546;2022-12-10T04:31:31;1.80;99.90
9179;DHT22;4624;48.126;11.546;2022-12-10T04:33:58;1.80;99.90
9179;DHT22;4624;48.126;11.546;2022-12-10T04:36:25;1.70;99.90
9179;DHT22;4624;48.126;11.546;2022-12-10T04:38:51;1.70;99.90
9179;DHT22;4624;48.126;11.546;2022-12-10T04:41:19;1.70;99.90
9179;DHT22;4624;48.126;11.546;2022-12-10T04:43:46;1.70;99.90
9179;DHT22;4624;48.126;11.546;2022-12-10T04:46:13;1.70;99.90
9179;DHT22;4624;48.126;11.546;2022-12-10T04:48:40;1.80;99.90
9179;DHT22;4624;48.126;11.546;2022-12-10T04:51:06;1.80;99.90
9179;DHT22;4624;48.126;11.546;2022-12-10T04:53:33;1.80;99.90
9179;DHT22;4624;48.126;11.546;2022-12-10T04:56:00;1.80;99.90
9179;DHT22;4624;48.126;11.546;2022-12-10T04:58:28;1.80;99.90
9179;DHT22;4624;48.126;11.546;2022-12-10T05:01:01;1.80;99.90
9179;DHT22;4624;48.126;11.546;2022-12-10T05:03:28;1.90;99.90
9179;DHT22;4624;48.126;11.546;2022-12-10T05:05:55;1.90;99.90
9179;DHT22;4624;48.126;11.546;2022-12-10T05:08:21;1.90;99.90
9179;DHT22;4624;48.126;11.546;2022-12-10T05:10:48;1.90;99.90
9179;DHT22;4624;48.126;11.546;2022-12-10T05:13:15;1.90;99.90
9179;DHT22;4624;48.126;11.546;2022-12-10T05:15:43;1.90;99.90
9179;DHT22;4624;48.126;11.546;2022-12-10T05:18:10;2.00;99.90
9179;DHT22;4624;48.126;11.546;2022-12-10T05:20:36;2.00;99.90
9179;DHT22;4624;48.126;11.546;2022-12-10T05:23:03;2.00;99.90
9179;DHT22;4624;48.126;11.546;2022-12-10T05:25:48;2.00;99.90
9179;DHT22;4624;48.126;11.546;2022-12-10T05:28:19;2.00;99.90
9179;DHT22;4624;48.126;11.546;2022-12-10T05:30:47;2.00;99.90
9179;DHT22;4624;48.126;11.546;2022-12-10T05:33:14;2.00;99.90
9179;DHT22;4624;48.126;11.546;2022-12-10T05:35:41;2.00;99.90
9179;DHT22;4624;48.126;11.546;2022-12-10T05:38:08;2.00;99.90
9179;DHT22;4624;48.126;11.546;2022-12-10T05:40:35;2.00;99.90
9179;DHT22;4624;48.126;11.546;2022-12-10T05:43:02;2.00;99.90
9179;DHT22;4624;48.126;11.546;2022-12-10T05:45:31;2.00;99.90
9179;DHT22;4624;48.126;11.546;2022-12-10T05:47:59;2.00;99.90
9179;DHT22;4624;48.126;11.546;2022-12-10T05:50:27;2.00;99.90
9179;DHT22;4624;48.126;11.546;2022-12-10T05:52:53;2.00;99.90
9179;DHT22;4624;48.126;11.546;2022-12-10T05:55:20;2.00;99.90
9179;DHT22;4624;48.126;11.546;2022-12-10T05:57:47;2.00;99.90
9179;DHT22;4624;48.126;11.546;2022-12-10T06:00:14;2.00;99.90
9179;DHT22;4624;48.126;11.546;2022-12-10T06:02:41;2.10;99.90
9179;DHT22;4624;48.126;11.546;2022-12-10T06:05:09;2.10;99.90
9179;DHT22;4624;48.126;11.546;2022-12-10T06:07:36;2.10;99.90
9179;DHT22;4624;48.126;11.546;2022-12-10T06:10:03;2.00;99.90
9179;DHT22;4624;48.126;11.546;2022-12-10T06:12:30;2.10;99.90
9179;DHT22;4624;48.126;11.546;2022-12-10T06:14:57;2.10;99.90
9179;DHT22;4624;48.126;11.546;2022-12-10T06:17:24;2.00;99.90
9179;DHT22;4624;48.126;11.546;2022-12-10T06:19:50;2.00;99.90
9179;DHT22;4624;48.126;11.546;2022-12-10T06:22:18;2.00;99.90
9179;DHT22;4624;48.126;11.546;2022-12-10T06:24:45;2.00;99.90
9179;DHT22;4624;48.126;11.546;2022-12-10T06:27:12;2.00;99.90
9179;DHT22;4624;48.126;11.546;2022-12-10T06:29:40;2.00;99.90
9179;DHT22;4624;48.126;11.546;2022-12-10T06:32:06;2.00;99.90
9179;DHT22;4624;48.126;11.546;2022-12-10T06:34:33;2.00;99.90
9179;DHT22;4624;48.126;11.546;2022-12-10T06:37:00;2.00;99.90
9179;DHT22;4624;48.126;11.546;2022-12-10T06:39:28;2.00;99.90
9179;DHT22;4624;48.126;11.546;2022-12-10T06:41:55;2.00;99.90
9179;DHT22;4624;48.126;11.546;2022-12-10T06:44:21;2.00;99.90
9179;DHT22;4624;48.126;11.546;2022-12-10T06:46:48;2.00;99.90
9179;DHT22;4624;48.126;11.546;2022-12-10T06:49:15;2.00;99.90
9179;DHT22;4624;48.126;11.546;2022-12-10T06:51:42;2.00;99.90
9179;DHT22;4624;48.126;11.546;2022-12-10T06:54:08;2.00;99.90
9179;DHT22;4624;48.126;11.546;2022-12-10T06:56:36;2.00;99.90
9179;DHT22;4624;48.126;11.546;2022-12-10T06:59:04;2.00;99.90
9179;DHT22;4624;48.126;11.546;2022-12-10T07:01:32;2.00;99.90
9179;DHT22;4624;48.126;11.546;2022-12-10T07:03:58;2.00;99.90
9179;DHT22;4624;48.126;11.546;2022-12-10T07:06:26;2.00;99.90
9179;DHT22;4624;48.126;11.546;2022-12-10T07:08:54;1.90;99.90
9179;DHT22;4624;48.126;11.546;2022-12-10T07:11:23;1.90;99.90
9179;DHT22;4624;48.126;11.546;2022-12-10T07:13:51;1.90;99.90
9179;DHT22;4624;48.126;11.546;2022-12-10T07:16:20;1.90;99.90
9179;DHT22;4624;48.126;11.546;2022-12-10T07:18:47;1.90;99.90
9179;DHT22;4624;48.126;11.546;2022-12-10T07:21:15;1.90;99.90
9179;DHT22;4624;48.126;11.546;2022-12-10T07:23:42;1.90;99.90
9179;DHT22;4624;48.126;11.546;2022-12-10T07:26:08;1.90;99.90
9179;DHT22;4624;48.126;11.546;2022-12-10T07:28:35;1.90;99.90
9179;DHT22;4624;48.126;11.546;2022-12-10T07:31:05;1.90;99.90
9179;DHT22;4624;48.126;11.546;2022-12-10T07:33:32;1.80;99.90
9179;DHT22;4624;48.126;11.546;2022-12-10T07:36:02;1.80;99.90
9179;DHT22;4624;48.126;11.546;2022-12-10T07:38:29;1.80;99.90
9179;DHT22;4624;48.126;11.546;2022-12-10T07:40:56;1.90;99.90
9179;DHT22;4624;48.126;11.546;2022-12-10T07:43:23;1.80;99.90
9179;DHT22;4624;48.126;11.546;2022-12-10T07:45:49;1.80;99.90
9179;DHT22;4624;48.126;11.546;2022-12-10T07:48:18;1.80;99.90
9179;DHT22;4624;48.126;11.546;2022-12-10T07:50:44;1.80;99.90
9179;DHT22;4624;48.126;11.546;2022-12-10T07:53:11;1.80;99.90
9179;DHT22;4624;48.126;11.546;2022-12-10T07:55:38;1.90;99.90
9179;DHT22;4624;48.126;11.546;2022-12-10T07:58:04;1.90;99.90
9179;DHT22;4624;48.126;11.546;2022-12-10T08:00:31;1.90;99.90
9179;DHT22;4624;48.126;11.546;2022-12-10T08:02:58;2.00;99.90
9179;DHT22;4624;48.126;11.546;2022-12-10T08:05:26;2.00;99.90
9179;DHT22;4624;48.126;11.546;2022-12-10T08:07:53;2.10;99.90
9179;DHT22;4624;48.126;11.546;2022-12-10T08:10:19;2.10;99.90
9179;DHT22;4624;48.126;11.546;2022-12-10T08:12:46;2.10;99.90
9179;DHT22;4624;48.126;11.546;2022-12-10T08:15:13;2.20;99.90
9179;DHT22;4624;48.126;11.546;2022-12-10T08:17:39;2.20;99.90
9179;DHT22;4624;48.126;11.546;2022-12-10T08:20:07;2.20;99.90
9179;DHT22;4624;48.126;11.546;2022-12-10T08:22:36;2.20;99.90
9179;DHT22;4624;48.126;11.546;2022-12-10T08:25:04;2.30;99.90
9179;DHT22;4624;48.126;11.546;2022-12-10T08:27:31;2.30;99.90
9179;DHT22;4624;48.126;11.546;2022-12-10T08:29:57;2.30;99.90
9179;DHT22;4624;48.126;11.546;2022-12-10T08:32:24;2.30;99.90
9179;DHT22;4624;48.126;11.546;2022-12-10T08:34:51;2.40;99.90
9179;DHT22;4624;48.126;11.546;2022-12-10T08:37:17;2.40;99.90
9179;DHT22;4624;48.126;11.546;2022-12-10T08:39:45;2.40;99.90
9179;DHT22;4624;48.126;11.546;2022-12-10T08:42:12;2.40;99.90
9179;DHT22;4624;48.126;11.546;2022-12-10T08:44:39;2.40;99.90
9179;DHT22;4624;48.126;11.546;2022-12-10T08:47:06;2.40;99.90
9179;DHT22;4624;48.126;11.546;2022-12-10T08:49:33;2.40;99.90
9179;DHT22;4624;48.126;11.546;2022-12-10T08:52:00;2.40;99.90
9179;DHT22;4624;48.126;11.546;2022-12-10T08:54:26;2.40;99.90
9179;DHT22;4624;48.126;11.546;2022-12-10T08:56:54;2.40;99.90
9179;DHT22;4624;48.126;11.546;2022-12-10T08:59:21;2.40;99.90
9179;DHT22;4624;48.126;11.546;2022-12-10T09:01:48;2.40;99.90
9179;DHT22;4624;48.126;11.546;2022-12-10T09:04:15;2.40;99.90
9179;DHT22;4624;48.126;11.546;2022-12-10T09:06:42;2.40;99.90
9179;DHT22;4624;48.126;11.546;2022-12-10T09:09:08;2.40;99.90
9179;DHT22;4624;48.126;11.546;2022-12-10T09:11:35;2.50;99.90
9179;DHT22;4624;48.126;11.546;2022-12-10T09:14:03;2.50;99.90
9179;DHT22;4624;48.126;11.546;2022-12-10T09:16:32;2.50;99.90
9179;DHT22;4624;48.126;11.546;2022-12-10T09:18:59;2.50;99.90
9179;DHT22;4624;48.126;11.546;2022-12-10T09:21:26;2.50;99.90
9179;DHT22;4624;48.126;11.546;2022-12-10T09:23:54;2.60;99.90
9179;DHT22;4624;48.126;11.546;2022-12-10T09:26:20;2.50;99.90
9179;DHT22;4624;48.126;11.546;2022-12-10T09:28:47;2.60;99.90
9179;DHT22;4624;48.126;11.546;2022-12-10T09:31:17;2.60;99.90
9179;DHT22;4624;48.126;11.546;2022-12-10T09:33:45;2.60;99.90
9179;DHT22;4624;48.126;11.546;2022-12-10T09:36:13;2.60;99.90
9179;DHT22;4624;48.126;11.546;2022-12-10T09:38:42;2.60;99.90
9179;DHT22;4624;48.126;11.546;2022-12-10T09:41:20;2.50;99.90
9179;DHT22;4624;48.126;11.546;2022-12-10T09:43:52;2.60;99.90
9179;DHT22;4624;48.126;11.546;2022-12-10T09:46:26;2.60;99.90
9179;DHT22;4624;48.126;11.546;2022-12-10T09:49:03;2.50;99.90
9179;DHT22;4624;48.126;11.546;2022-12-10T09:51:35;2.50;99.90
9179;DHT22;4624;48.126;11.546;2022-12-10T09:54:09;2.50;99.90
9179;DHT22;4624;48.126;11.546;2022-12-10T09:56:38;2.50;99.90
9179;DHT22;4624;48.126;11.546;2022-12-10T09:59:12;2.50;99.90
9179;DHT22;4624;48.126;11.546;2022-12-10T10:01:44;2.50;99.90
9179;DHT22;4624;48.126;11.546;2022-12-10T10:04:11;2.50;99.90
9179;DHT22;4624;48.126;11.546;2022-12-10T10:06:38;2.50;99.90
9179;DHT22;4624;48.126;11.546;2022-12-10T10:09:06;2.50;99.90
9179;DHT22;4624;48.126;11.546;2022-12-10T10:11:36;2.50;99.90
9179;DHT22;4624;48.126;11.546;2022-12-10T10:14:08;2.40;99.90
9179;DHT22;4624;48.126;11.546;2022-12-10T10:16:39;2.40;99.90
9179;DHT22;4624;48.126;11.546;2022-12-10T10:19:13;2.40;99.90
9179;DHT22;4624;48.126;11.546;2022-12-10T10:21:42;2.50;99.90
9179;DHT22;4624;48.126;11.546;2022-12-10T10:24:13;2.50;99.90
9179;DHT22;4624;48.126;11.546;2022-12-10T10:26:40;2.40;99.90
9179;DHT22;4624;48.126;11.546;2022-12-10T10:29:08;2.40;99.90
9179;DHT22;4624;48.126;11.546;2022-12-10T10:31:38;2.50;99.90
9179;DHT22;4624;48.126;11.546;2022-12-10T10:34:16;2.50;99.90
9179;DHT22;4624;48.126;11.546;2022-12-10T10:36:44;2.50;99.90
9179;DHT22;4624;48.126;11.546;2022-12-10T10:39:22;2.50;99.90
9179;DHT22;4624;48.126;11.546;2022-12-10T10:41:54;2.40;99.90
9179;DHT22;4624;48.126;11.546;2022-12-10T10:44:22;2.50;99.90
9179;DHT22;4624;48.126;11.546;2022-12-10T10:46:53;2.50;99.90
9179;DHT22;4624;48.126;11.546;2022-12-10T10:49:25;2.50;99.90
9179;DHT22;4624;48.126;11.546;2022-12-10T10:51:53;2.50;99.90
9179;DHT22;4624;48.126;11.546;2022-12-10T10:54:32;2.50;99.90
9179;DHT22;4624;48.126;11.546;2022-12-10T10:57:06;2.60;99.90
9179;DHT22;4624;48.126;11.546;2022-12-10T10:59:37;2.60;99.90
9179;DHT22;4624;48.126;11.546;2022-12-10T11:02:17;2.50;99.90
9179;DHT22;4624;48.126;11.546;2022-12-10T11:04:48;2.50;99.90
9179;DHT22;4624;48.126;11.546;2022-12-10T11:07:21;2.60;99.90
9179;DHT22;4624;48.126;11.546;2022-12-10T11:09:49;2.50;99.90
9179;DHT22;4624;48.126;11.546;2022-12-10T11:12:38;2.50;99.90
9179;DHT22;4624;48.126;11.546;2022-12-10T11:15:29;2.60;99.90
9179;DHT22;4624;48.126;11.546;2022-12-10T11:17:57;2.60;99.90
9179;DHT22;4624;48.126;11.546;2022-12-10T11:20:28;2.60;99.90
9179;DHT22;4624;48.126;11.546;2022-12-10T11:22:57;2.60;99.90
9179;DHT22;4624;48.126;11.546;2022-12-10T11:25:36;2.60;99.90
9179;DHT22;4624;48.126;11.546;2022-12-10T11:28:16;2.60;99.90
9179;DHT22;4624;48.126;11.546;2022-12-10T11:30:53;2.60;99.90
9179;DHT22;4624;48.126;11.546;2022-12-10T11:33:27;2.70;99.90
9179;DHT22;4624;48.126;11.546;2022-12-10T11:36:07;2.70;99.90
9179;DHT22;4624;48.126;11.546;2022-12-10T11:38:48;2.70;99.90
9179;DHT22;4624;48.126;11.546;2022-12-10T11:41:19;2.70;99.90
9179;DHT22;4624;48.126;11.546;2022-12-10T11:44:13;2.70;99.90
9179;DHT22;4624;48.126;11.546;2022-12-10T11:47:00;2.70;99.90
9179;DHT22;4624;48.126;11.546;2022-12-10T11:49:37;2.70;99.90
9179;DHT22;4624;48.126;11.546;2022-12-10T11:52:14;2.70;99.90
9179;DHT22;4624;48.126;11.546;2022-12-10T11:55:02;2.70;99.90
9179;DHT22;4624;48.126;11.546;2022-12-10T11:57:37;2.70;99.90
9179;DHT22;4624;48.126;11.546;2022-12-10T12:00:16;2.70;99.90
9179;DHT22;4624;48.126;11.546;2022-12-10T12:03:15;2.60;99.90
9179;DHT22;4624;48.126;11.546;2022-12-10T12:06:01;2.70;99.90
9179;DHT22;4624;48.126;11.546;2022-12-10T12:08:38;2.60;99.90
9179;DHT22;4624;48.126;11.546;2022-12-10T12:11:26;2.60;99.90
9179;DHT22;4624;48.126;11.546;2022-12-10T12:13:57;2.60;99.90
9179;DHT22;4624;48.126;11.546;2022-12-10T12:16:31;2.60;99.90
9179;DHT22;4624;48.126;11.546;2022-12-10T12:19:02;2.50;99.90
9179;DHT22;4624;48.126;11.546;2022-12-10T12:21:30;2.50;99.90
9179;DHT22;4624;48.126;11.546;2022-12-10T12:24:01;2.50;99.90
9179;DHT22;4624;48.126;11.546;2022-12-10T12:26:32;2.40;99.90
9179;DHT22;4624;48.126;11.546;2022-12-10T12:29:10;2.40;99.90
9179;DHT22;4624;48.126;11.546;2022-12-10T12:31:41;2.40;99.90
9179;DHT22;4624;48.126;11.546;2022-12-10T12:34:15;2.40;99.90
9179;DHT22;4624;48.126;11.546;2022-12-10T12:36:44;2.40;99.90
9179;DHT22;4624;48.126;11.546;2022-12-10T12:39:20;2.40;99.90
9179;DHT22;4624;48.126;11.546;2022-12-10T12:41:55;2.30;99.90
9179;DHT22;4624;48.126;11.546;2022-12-10T12:44:28;2.40;99.90
9179;DHT22;4624;48.126;11.546;2022-12-10T12:46:58;2.30;99.90
9179;DHT22;4624;48.126;11.546;2022-12-10T12:49:30;2.30;99.90
9179;DHT22;4624;48.126;11.546;2022-12-10T12:52:01;2.40;99.90
9179;DHT22;4624;48.126;11.546;2022-12-10T12:54:31;2.40;99.90
9179;DHT22;4624;48.126;11.546;2022-12-10T12:57:03;2.30;99.90
9179;DHT22;4624;48.126;11.546;2022-12-10T12:59:53;2.30;99.90
9179;DHT22;4624;48.126;11.546;2022-12-10T13:02:41;2.40;99.90
9179;DHT22;4624;48.126;11.546;2022-12-10T13:05:13;2.30;99.90
9179;DHT22;4624;48.126;11.546;2022-12-10T13:07:41;2.30;99.90
9179;DHT22;4624;48.126;11.546;2022-12-10T13:10:26;2.30;99.90
9179;DHT22;4624;48.126;11.546;2022-12-10T13:13:16;2.30;99.90
9179;DHT22;4624;48.126;11.546;2022-12-10T13:15:43;2.30;99.90
9179;DHT22;4624;48.126;11.546;2022-12-10T13:18:34;2.20;99.90
9179;DHT22;4624;48.126;11.546;2022-12-10T13:21:28;2.20;99.90
9179;DHT22;4624;48.126;11.546;2022-12-10T13:24:10;2.20;99.90
9179;DHT22;4624;48.126;11.546;2022-12-10T13:27:01;2.10;99.90
9179;DHT22;4624;48.126;11.546;2022-12-10T13:29:29;2.10;99.90
9179;DHT22;4624;48.126;11.546;2022-12-10T13:32:14;2.10;99.90
9179;DHT22;4624;48.126;11.546;2022-12-10T13:34:42;2.10;99.90
9179;DHT22;4624;48.126;11.546;2022-12-10T13:37:27;2.10;99.90
9179;DHT22;4624;48.126;11.546;2022-12-10T13:40:12;2.10;99.90
9179;DHT22;4624;48.126;11.546;2022-12-10T13:42:44;2.10;99.90
9179;DHT22;4624;48.126;11.546;2022-12-10T13:45:32;2.10;99.90
9179;DHT22;4624;48.126;11.546;2022-12-10T13:48:29;2.00;99.90
9179;DHT22;4624;48.126;11.546;2022-12-10T13:51:13;2.10;99.90
9179;DHT22;4624;48.126;11.546;2022-12-10T13:53:53;2.00;99.90
9179;DHT22;4624;48.126;11.546;2022-12-10T13:56:26;2.00;99.90
9179;DHT22;4624;48.126;11.546;2022-12-10T14:01:48;2.00;99.90
9179;DHT22;4624;48.126;11.546;2022-12-10T14:07:07;2.00;99.90
9179;DHT22;4624;48.126;11.546;2022-12-10T14:09:39;2.00;99.90
9179;DHT22;4624;48.126;11.546;2022-12-10T14:12:14;1.90;99.90
9179;DHT22;4624;48.126;11.546;2022-12-10T14:14:46;1.90;99.90
9179;DHT22;4624;48.126;11.546;2022-12-10T14:17:16;1.90;99.90
9179;DHT22;4624;48.126;11.546;2022-12-10T14:19:46;1.90;99.90
9179;DHT22;4624;48.126;11.546;2022-12-10T14:22:17;1.90;99.90
9179;DHT22;4624;48.126;11.546;2022-12-10T14:24:49;1.90;99.90
9179;DHT22;4624;48.126;11.546;2022-12-10T14:27:17;1.90;99.90
9179;DHT22;4624;48.126;11.546;2022-12-10T14:29:47;1.90;99.90
9179;DHT22;4624;48.126;11.546;2022-12-10T14:32:16;1.90;99.90
9179;DHT22;4624;48.126;11.546;2022-12-10T14:34:47;1.90;99.90
9179;DHT22;4624;48.126;11.546;2022-12-10T14:37:24;1.90;99.90
9179;DHT22;4624;48.126;11.546;2022-12-10T14:39:51;1.80;99.90
9179;DHT22;4624;48.126;11.546;2022-12-10T14:42:18;1.80;99.90
9179;DHT22;4624;48.126;11.546;2022-12-10T14:44:51;1.80;99.90
9179;DHT22;4624;48.126;11.546;2022-12-10T14:47:20;1.80;99.90
9179;DHT22;4624;48.126;11.546;2022-12-10T14:49:48;1.80;99.90
9179;DHT22;4624;48.126;11.546;2022-12-10T14:52:17;1.80;99.90
9179;DHT22;4624;48.126;11.546;2022-12-10T14:54:44;1.80;99.90
9179;DHT22;4624;48.126;11.546;2022-12-10T14:57:16;1.80;99.90
9179;DHT22;4624;48.126;11.546;2022-12-10T14:59:48;1.80;99.90
9179;DHT22;4624;48.126;11.546;2022-12-10T15:02:21;1.80;99.90
9179;DHT22;4624;48.126;11.546;2022-12-10T15:04:49;1.80;99.90
9179;DHT22;4624;48.126;11.546;2022-12-10T15:07:19;1.70;99.90
9179;DHT22;4624;48.126;11.546;2022-12-10T15:09:47;1.70;99.90
9179;DHT22;4624;48.126;11.546;2022-12-10T15:12:23;1.70;99.90
9179;DHT22;4624;48.126;11.546;2022-12-10T15:14:55;1.70;99.90
9179;DHT22;4624;48.126;11.546;2022-12-10T15:17:37;1.70;99.90
9179;DHT22;4624;48.126;11.546;2022-12-10T15:20:17;1.70;99.90
9179;DHT22;4624;48.126;11.546;2022-12-10T15:22:44;1.70;99.90
9179;DHT22;4624;48.126;11.546;2022-12-10T15:25:20;1.70;99.90
9179;DHT22;4624;48.126;11.546;2022-12-10T15:27:59;1.70;99.90
9179;DHT22;4624;48.126;11.546;2022-12-10T15:30:38;1.70;99.90
9179;DHT22;4624;48.126;11.546;2022-12-10T15:33:22;1.70;99.90
9179;DHT22;4624;48.126;11.546;2022-12-10T15:35:49;1.70;99.90
9179;DHT22;4624;48.126;11.546;2022-12-10T15:38:19;1.70;99.90
9179;DHT22;4624;48.126;11.546;2022-12-10T15:40:46;1.70;99.90
9179;DHT22;4624;48.126;11.546;2022-12-10T15:43:26;1.70;99.90
9179;DHT22;4624;48.126;11.546;2022-12-10T15:45:58;1.70;99.90
9179;DHT22;4624;48.126;11.546;2022-12-10T15:48:28;1.70;99.90
9179;DHT22;4624;48.126;11.546;2022-12-10T15:50:55;1.70;99.90
9179;DHT22;4624;48.126;11.546;2022-12-10T15:53:26;1.60;99.90
9179;DHT22;4624;48.126;11.546;2022-12-10T15:55:54;1.60;99.90
9179;DHT22;4624;48.126;11.546;2022-12-10T15:58:21;1.60;99.90
9179;DHT22;4624;48.126;11.546;2022-12-10T16:00:48;1.60;99.90
9179;DHT22;4624;48.126;11.546;2022-12-10T16:05:44;1.50;99.90
9179;DHT22;4624;48.126;11.546;2022-12-10T16:08:17;1.50;99.90
9179;DHT22;4624;48.126;11.546;2022-12-10T16:10:45;1.50;99.90
9179;DHT22;4624;48.126;11.546;2022-12-10T16:13:16;1.50;99.90
9179;DHT22;4624;48.126;11.546;2022-12-10T16:15:45;1.40;99.90
9179;DHT22;4624;48.126;11.546;2022-12-10T16:18:13;1.40;99.90
9179;DHT22;4624;48.126;11.546;2022-12-10T16:20:40;1.40;99.90
9179;DHT22;4624;48.126;11.546;2022-12-10T16:23:08;1.40;99.90
9179;DHT22;4624;48.126;11.546;2022-12-10T16:25:35;1.40;99.90
9179;DHT22;4624;48.126;11.546;2022-12-10T16:28:11;1.40;99.90
9179;DHT22;4624;48.126;11.546;2022-12-10T16:30:42;1.40;99.90
9179;DHT22;4624;48.126;11.546;2022-12-10T16:33:09;1.40;99.90